sensor_id;sensor_type;location;lat;lon;timestamp;P1;durP1;ratioP1;P2;durP2;ratioP2
75758;SDS011;64371;47.566;19.086;2023-02-26T00:00:36;5.07;;;2.83;;
75758;SDS011;64371;47.566;19.086;2023-02-26T00:03:47;4.88;;;2.60;;
75758;SDS011;64371;47.566;19.086;2023-02-26T00:06:51;5.97;;;2.83;;
75758;SDS011;64371;47.566;19.086;2023-02-26T00:09:59;3.73;;;2.47;;
75758;SDS011;64371;47.566;19.086;2023-02-26T00:13:03;5.25;;;2.63;;
75758;SDS011;64371;47.566;19.086;2023-02-26T00:16:31;4.68;;;2.60;;
75758;SDS011;64371;47.566;19.086;2023-02-26T00:19:35;4.93;;;2.45;;
75758;SDS011;64371;47.566;19.086;2023-02-26T00:22:42;4.70;;;2.65;;
75758;SDS011;64371;47.566;19.086;2023-02-26T00:25:48;3.87;;;2.30;;
75758;SDS011;64371;47.566;19.086;2023-02-26T00:28:53;5.07;;;2.58;;
75758;SDS011;64371;47.566;19.086;2023-02-26T00:32:07;4.28;;;2.55;;
75758;SDS011;64371;47.566;19.086;2023-02-26T00:35:19;3.58;;;2.10;;
75758;SDS011;64371;47.566;19.086;2023-02-26T00:38:22;4.78;;;2.95;;
75758;SDS011;64371;47.566;19.086;2023-02-26T00:41:28;5.63;;;3.07;;
75758;SDS011;64371;47.566;19.086;2023-02-26T00:44:34;5.50;;;2.83;;
75758;SDS011;64371;47.566;19.086;2023-02-26T00:51:52;5.75;;;2.78;;
75758;SDS011;64371;47.566;19.086;2023-02-26T00:55:03;4.35;;;2.75;;
75758;SDS011;64371;47.566;19.086;2023-02-26T00:58:08;5.63;;;3.13;;
75758;SDS011;64371;47.566;19.086;2023-02-26T01:01:11;4.78;;;2.88;;
75758;SDS011;64371;47.566;19.086;2023-02-26T01:04:19;4.93;;;3.10;;
75758;SDS011;64371;47.566;19.086;2023-02-26T01:07:38;6.88;;;2.80;;
75758;SDS011;64371;47.566;19.086;2023-02-26T01:10:59;6.25;;;2.80;;
75758;SDS011;64371;47.566;19.086;2023-02-26T01:14:04;5.13;;;2.80;;
75758;SDS011;64371;47.566;19.086;2023-02-26T01:20:47;5.10;;;2.38;;
75758;SDS011;64371;47.566;19.086;2023-02-26T01:24:16;4.82;;;2.65;;
75758;SDS011;64371;47.566;19.086;2023-02-26T01:27:36;4.85;;;2.72;;
75758;SDS011;64371;47.566;19.086;2023-02-26T01:30:41;4.50;;;2.57;;
75758;SDS011;64371;47.566;19.086;2023-02-26T01:33:50;5.70;;;2.58;;
75758;SDS011;64371;47.566;19.086;2023-02-26T01:44:08;4.60;;;2.58;;
75758;SDS011;64371;47.566;19.086;2023-02-26T01:50:45;4.38;;;2.90;;
75758;SDS011;64371;47.566;19.086;2023-02-26T01:53:50;4.35;;;2.78;;
75758;SDS011;64371;47.566;19.086;2023-02-26T01:57:16;4.45;;;2.53;;
75758;SDS011;64371;47.566;19.086;2023-02-26T02:00:30;5.25;;;2.80;;
75758;SDS011;64371;47.566;19.086;2023-02-26T02:03:37;4.77;;;2.80;;
75758;SDS011;64371;47.566;19.086;2023-02-26T02:06:43;6.22;;;2.97;;
75758;SDS011;64371;47.566;19.086;2023-02-26T02:09:51;4.03;;;2.60;;
75758;SDS011;64371;47.566;19.086;2023-02-26T02:16:36;4.70;;;2.60;;
75758;SDS011;64371;47.566;19.086;2023-02-26T02:23:50;5.10;;;3.40;;
75758;SDS011;64371;47.566;19.086;2023-02-26T02:27:25;5.82;;;3.08;;
75758;SDS011;64371;47.566;19.086;2023-02-26T02:30:48;5.25;;;2.70;;
75758;SDS011;64371;47.566;19.086;2023-02-26T02:34:21;5.53;;;2.97;;
75758;SDS011;64371;47.566;19.086;2023-02-26T02:37:26;5.00;;;2.80;;
75758;SDS011;64371;47.566;19.086;2023-02-26T02:40:40;5.53;;;2.95;;
75758;SDS011;64371;47.566;19.086;2023-02-26T02:43:59;5.85;;;2.88;;
75758;SDS011;64371;47.566;19.086;2023-02-26T02:47:06;4.93;;;2.70;;
75758;SDS011;64371;47.566;19.086;2023-02-26T02:53:42;6.27;;;3.43;;
75758;SDS011;64371;47.566;19.086;2023-02-26T02:57:02;4.80;;;3.00;;
75758;SDS011;64371;47.566;19.086;2023-02-26T03:00:33;6.10;;;3.70;;
75758;SDS011;64371;47.566;19.086;2023-02-26T03:04:13;6.25;;;3.17;;
75758;SDS011;64371;47.566;19.086;2023-02-26T03:07:18;6.35;;;3.42;;
75758;SDS011;64371;47.566;19.086;2023-02-26T03:10:44;5.50;;;2.93;;
75758;SDS011;64371;47.566;19.086;2023-02-26T03:13:49;5.60;;;3.47;;
75758;SDS011;64371;47.566;19.086;2023-02-26T03:20:48;6.57;;;3.55;;
75758;SDS011;64371;47.566;19.086;2023-02-26T03:27:48;7.23;;;3.87;;
75758;SDS011;64371;47.566;19.086;2023-02-26T03:31:07;5.88;;;3.22;;
75758;SDS011;64371;47.566;19.086;2023-02-26T03:34:36;6.90;;;3.88;;
75758;SDS011;64371;47.566;19.086;2023-02-26T03:37:47;6.65;;;3.20;;
75758;SDS011;64371;47.566;19.086;2023-02-26T03:41:03;6.57;;;3.40;;
75758;SDS011;64371;47.566;19.086;2023-02-26T03:44:32;6.60;;;3.60;;
75758;SDS011;64371;47.566;19.086;2023-02-26T03:47:41;6.43;;;3.70;;
75758;SDS011;64371;47.566;19.086;2023-02-26T03:51:10;5.75;;;3.50;;
75758;SDS011;64371;47.566;19.086;2023-02-26T03:54:40;6.53;;;3.28;;
75758;SDS011;64371;47.566;19.086;2023-02-26T03:58:13;6.03;;;3.60;;
75758;SDS011;64371;47.566;19.086;2023-02-26T04:01:34;6.17;;;3.40;;
75758;SDS011;64371;47.566;19.086;2023-02-26T04:05:12;6.28;;;3.30;;
75758;SDS011;64371;47.566;19.086;2023-02-26T04:08:25;10.38;;;3.85;;
75758;SDS011;64371;47.566;19.086;2023-02-26T04:11:28;6.85;;;3.60;;
75758;SDS011;64371;47.566;19.086;2023-02-26T04:14:45;6.72;;;3.70;;
75758;SDS011;64371;47.566;19.086;2023-02-26T04:17:56;7.53;;;3.70;;
75758;SDS011;64371;47.566;19.086;2023-02-26T04:21:13;7.20;;;3.83;;
75758;SDS011;64371;47.566;19.086;2023-02-26T04:24:27;9.13;;;4.18;;
75758;SDS011;64371;47.566;19.086;2023-02-26T04:27:36;7.80;;;4.28;;
75758;SDS011;64371;47.566;19.086;2023-02-26T04:30:44;7.22;;;4.00;;
75758;SDS011;64371;47.566;19.086;2023-02-26T04:33:51;7.27;;;4.27;;
75758;SDS011;64371;47.566;19.086;2023-02-26T04:36:56;7.80;;;4.15;;
75758;SDS011;64371;47.566;19.086;2023-02-26T04:40:08;8.90;;;4.35;;
75758;SDS011;64371;47.566;19.086;2023-02-26T04:43:12;8.02;;;4.15;;
75758;SDS011;64371;47.566;19.086;2023-02-26T04:46:27;7.60;;;4.40;;
75758;SDS011;64371;47.566;19.086;2023-02-26T04:49:34;7.70;;;4.10;;
75758;SDS011;64371;47.566;19.086;2023-02-26T04:52:53;6.95;;;4.00;;
75758;SDS011;64371;47.566;19.086;2023-02-26T04:56:08;6.45;;;4.10;;
75758;SDS011;64371;47.566;19.086;2023-02-26T04:59:18;8.90;;;4.35;;
75758;SDS011;64371;47.566;19.086;2023-02-26T05:02:22;7.97;;;4.50;;
75758;SDS011;64371;47.566;19.086;2023-02-26T05:05:27;7.30;;;4.33;;
75758;SDS011;64371;47.566;19.086;2023-02-26T05:08:35;6.93;;;3.90;;
75758;SDS011;64371;47.566;19.086;2023-02-26T05:11:49;6.50;;;4.07;;
75758;SDS011;64371;47.566;19.086;2023-02-26T05:14:56;7.82;;;3.92;;
75758;SDS011;64371;47.566;19.086;2023-02-26T05:18:04;7.57;;;4.18;;
75758;SDS011;64371;47.566;19.086;2023-02-26T05:21:18;8.47;;;3.77;;
75758;SDS011;64371;47.566;19.086;2023-02-26T05:24:27;7.60;;;4.10;;
75758;SDS011;64371;47.566;19.086;2023-02-26T05:27:31;7.32;;;3.70;;
75758;SDS011;64371;47.566;19.086;2023-02-26T05:30:35;8.07;;;3.80;;
75758;SDS011;64371;47.566;19.086;2023-02-26T05:33:42;6.82;;;3.83;;
75758;SDS011;64371;47.566;19.086;2023-02-26T05:36:50;7.60;;;4.50;;
75758;SDS011;64371;47.566;19.086;2023-02-26T05:39:56;6.93;;;4.10;;
75758;SDS011;64371;47.566;19.086;2023-02-26T05:43:04;7.75;;;4.20;;
75758;SDS011;64371;47.566;19.086;2023-02-26T05:46:12;7.32;;;3.58;;
75758;SDS011;64371;47.566;19.086;2023-02-26T05:49:17;8.88;;;4.10;;
75758;SDS011;64371;47.566;19.086;2023-02-26T05:52:20;8.20;;;3.70;;
75758;SDS011;64371;47.566;19.086;2023-02-26T05:55:26;8.57;;;4.45;;
75758;SDS011;64371;47.566;19.086;2023-02-26T05:58:37;8.95;;;4.85;;
75758;SDS011;64371;47.566;19.086;2023-02-26T06:02:15;7.85;;;4.28;;
75758;SDS011;64371;47.566;19.086;2023-02-26T06:05:20;7.47;;;3.92;;
75758;SDS011;64371;47.566;19.086;2023-02-26T06:08:29;7.33;;;3.90;;
75758;SDS011;64371;47.566;19.086;2023-02-26T06:11:35;7.90;;;4.50;;
75758;SDS011;64371;47.566;19.086;2023-02-26T06:14:44;8.68;;;4.85;;
75758;SDS011;64371;47.566;19.086;2023-02-26T06:17:49;7.07;;;4.22;;
75758;SDS011;64371;47.566;19.086;2023-02-26T06:20:59;7.90;;;4.20;;
75758;SDS011;64371;47.566;19.086;2023-02-26T06:24:12;8.20;;;4.20;;
75758;SDS011;64371;47.566;19.086;2023-02-26T06:27:21;8.73;;;4.78;;
75758;SDS011;64371;47.566;19.086;2023-02-26T06:30:27;10.00;;;5.47;;
75758;SDS011;64371;47.566;19.086;2023-02-26T06:33:36;9.40;;;4.95;;
75758;SDS011;64371;47.566;19.086;2023-02-26T06:36:42;8.93;;;4.90;;
75758;SDS011;64371;47.566;19.086;2023-02-26T06:39:58;12.20;;;5.53;;
75758;SDS011;64371;47.566;19.086;2023-02-26T06:43:06;9.52;;;4.70;;
75758;SDS011;64371;47.566;19.086;2023-02-26T06:46:09;8.20;;;4.45;;
75758;SDS011;64371;47.566;19.086;2023-02-26T06:49:14;8.93;;;5.00;;
75758;SDS011;64371;47.566;19.086;2023-02-26T06:52:25;8.63;;;4.45;;
75758;SDS011;64371;47.566;19.086;2023-02-26T06:55:27;7.03;;;3.80;;
75758;SDS011;64371;47.566;19.086;2023-02-26T06:58:40;9.68;;;5.15;;
75758;SDS011;64371;47.566;19.086;2023-02-26T07:01:53;8.27;;;4.53;;
75758;SDS011;64371;47.566;19.086;2023-02-26T07:05:00;6.95;;;3.97;;
75758;SDS011;64371;47.566;19.086;2023-02-26T07:08:21;8.10;;;4.30;;
75758;SDS011;64371;47.566;19.086;2023-02-26T07:11:29;7.23;;;4.53;;
75758;SDS011;64371;47.566;19.086;2023-02-26T07:14:37;7.60;;;4.18;;
75758;SDS011;64371;47.566;19.086;2023-02-26T07:17:45;6.95;;;3.95;;
75758;SDS011;64371;47.566;19.086;2023-02-26T07:20:50;8.18;;;4.25;;
75758;SDS011;64371;47.566;19.086;2023-02-26T07:24:00;8.93;;;5.80;;
75758;SDS011;64371;47.566;19.086;2023-02-26T07:27:02;7.73;;;4.50;;
75758;SDS011;64371;47.566;19.086;2023-02-26T07:30:13;7.20;;;4.50;;
75758;SDS011;64371;47.566;19.086;2023-02-26T07:33:21;6.47;;;4.53;;
75758;SDS011;64371;47.566;19.086;2023-02-26T07:36:25;8.13;;;4.32;;
75758;SDS011;64371;47.566;19.086;2023-02-26T07:39:32;10.15;;;5.53;;
75758;SDS011;64371;47.566;19.086;2023-02-26T07:42:37;8.47;;;4.67;;
75758;SDS011;64371;47.566;19.086;2023-02-26T07:45:41;8.25;;;4.85;;
75758;SDS011;64371;47.566;19.086;2023-02-26T07:48:45;9.60;;;5.20;;
75758;SDS011;64371;47.566;19.086;2023-02-26T07:51:53;8.98;;;4.50;;
75758;SDS011;64371;47.566;19.086;2023-02-26T07:55:09;9.10;;;4.88;;
75758;SDS011;64371;47.566;19.086;2023-02-26T07:58:17;7.40;;;4.33;;
75758;SDS011;64371;47.566;19.086;2023-02-26T08:01:34;6.88;;;4.35;;
75758;SDS011;64371;47.566;19.086;2023-02-26T08:04:48;7.43;;;4.47;;
75758;SDS011;64371;47.566;19.086;2023-02-26T08:07:53;8.38;;;4.82;;
75758;SDS011;64371;47.566;19.086;2023-02-26T08:11:08;6.90;;;4.43;;
75758;SDS011;64371;47.566;19.086;2023-02-26T08:14:14;6.60;;;3.23;;
75758;SDS011;64371;47.566;19.086;2023-02-26T08:17:26;7.00;;;4.45;;
75758;SDS011;64371;47.566;19.086;2023-02-26T08:20:37;7.45;;;4.35;;
75758;SDS011;64371;47.566;19.086;2023-02-26T08:23:43;7.88;;;4.03;;
75758;SDS011;64371;47.566;19.086;2023-02-26T08:27:04;7.45;;;4.30;;
75758;SDS011;64371;47.566;19.086;2023-02-26T08:30:16;6.43;;;4.17;;
75758;SDS011;64371;47.566;19.086;2023-02-26T08:33:18;6.35;;;4.05;;
75758;SDS011;64371;47.566;19.086;2023-02-26T08:36:23;6.22;;;4.05;;
75758;SDS011;64371;47.566;19.086;2023-02-26T08:39:28;7.03;;;4.15;;
75758;SDS011;64371;47.566;19.086;2023-02-26T08:42:43;7.22;;;3.95;;
75758;SDS011;64371;47.566;19.086;2023-02-26T08:46:09;6.90;;;4.00;;
75758;SDS011;64371;47.566;19.086;2023-02-26T08:49:17;7.00;;;4.20;;
75758;SDS011;64371;47.566;19.086;2023-02-26T08:52:19;6.88;;;4.35;;
75758;SDS011;64371;47.566;19.086;2023-02-26T08:55:35;5.30;;;3.40;;
75758;SDS011;64371;47.566;19.086;2023-02-26T08:58:38;6.00;;;3.78;;
75758;SDS011;64371;47.566;19.086;2023-02-26T09:01:42;5.17;;;3.03;;
75758;SDS011;64371;47.566;19.086;2023-02-26T09:04:54;6.07;;;2.70;;
75758;SDS011;64371;47.566;19.086;2023-02-26T09:07:59;4.57;;;2.75;;
75758;SDS011;64371;47.566;19.086;2023-02-26T09:11:10;3.85;;;2.30;;
75758;SDS011;64371;47.566;19.086;2023-02-26T09:14:27;3.17;;;2.28;;
75758;SDS011;64371;47.566;19.086;2023-02-26T09:17:29;4.53;;;2.50;;
75758;SDS011;64371;47.566;19.086;2023-02-26T09:20:40;4.07;;;2.53;;
75758;SDS011;64371;47.566;19.086;2023-02-26T09:23:43;4.25;;;2.55;;
75758;SDS011;64371;47.566;19.086;2023-02-26T09:26:53;4.80;;;2.38;;
75758;SDS011;64371;47.566;19.086;2023-02-26T09:30:04;4.55;;;2.80;;
75758;SDS011;64371;47.566;19.086;2023-02-26T09:33:15;6.40;;;3.10;;
75758;SDS011;64371;47.566;19.086;2023-02-26T09:36:17;4.65;;;2.80;;
75758;SDS011;64371;47.566;19.086;2023-02-26T09:39:27;6.05;;;3.03;;
75758;SDS011;64371;47.566;19.086;2023-02-26T09:46:01;3.90;;;2.55;;
75758;SDS011;64371;47.566;19.086;2023-02-26T09:49:13;3.60;;;1.80;;
75758;SDS011;64371;47.566;19.086;2023-02-26T09:55:42;3.53;;;1.65;;
75758;SDS011;64371;47.566;19.086;2023-02-26T09:59:04;2.72;;;1.45;;
75758;SDS011;64371;47.566;19.086;2023-02-26T10:02:37;2.33;;;1.15;;
75758;SDS011;64371;47.566;19.086;2023-02-26T10:12:25;2.15;;;1.30;;
75758;SDS011;64371;47.566;19.086;2023-02-26T10:15:37;4.00;;;2.13;;
75758;SDS011;64371;47.566;19.086;2023-02-26T10:18:56;3.78;;;1.92;;
75758;SDS011;64371;47.566;19.086;2023-02-26T10:22:19;3.57;;;2.00;;
75758;SDS011;64371;47.566;19.086;2023-02-26T10:25:49;4.25;;;2.40;;
75758;SDS011;64371;47.566;19.086;2023-02-26T10:32:40;4.85;;;3.13;;
75758;SDS011;64371;47.566;19.086;2023-02-26T10:36:07;3.78;;;2.30;;
75758;SDS011;64371;47.566;19.086;2023-02-26T10:39:41;7.43;;;2.90;;
75758;SDS011;64371;47.566;19.086;2023-02-26T10:42:53;3.58;;;2.40;;
75758;SDS011;64371;47.566;19.086;2023-02-26T10:52:43;3.15;;;2.17;;
75758;SDS011;64371;47.566;19.086;2023-02-26T10:56:29;7.67;;;3.00;;
75758;SDS011;64371;47.566;19.086;2023-02-26T10:59:43;4.57;;;2.85;;
75758;SDS011;64371;47.566;19.086;2023-02-26T11:02:55;4.65;;;2.78;;
75758;SDS011;64371;47.566;19.086;2023-02-26T11:06:14;4.45;;;3.10;;
75758;SDS011;64371;47.566;19.086;2023-02-26T11:09:32;4.45;;;2.58;;
75758;SDS011;64371;47.566;19.086;2023-02-26T11:12:51;4.40;;;2.30;;
75758;SDS011;64371;47.566;19.086;2023-02-26T11:16:07;7.78;;;4.07;;
75758;SDS011;64371;47.566;19.086;2023-02-26T11:19:37;5.85;;;3.38;;
75758;SDS011;64371;47.566;19.086;2023-02-26T11:22:48;7.93;;;3.90;;
75758;SDS011;64371;47.566;19.086;2023-02-26T11:26:07;5.95;;;3.42;;
75758;SDS011;64371;47.566;19.086;2023-02-26T11:29:23;7.30;;;3.23;;
75758;SDS011;64371;47.566;19.086;2023-02-26T11:32:30;7.72;;;3.80;;
75758;SDS011;64371;47.566;19.086;2023-02-26T11:35:40;8.00;;;3.88;;
75758;SDS011;64371;47.566;19.086;2023-02-26T11:38:56;4.15;;;2.75;;
75758;SDS011;64371;47.566;19.086;2023-02-26T11:42:05;6.18;;;3.00;;
75758;SDS011;64371;47.566;19.086;2023-02-26T11:45:15;12.30;;;5.33;;
75758;SDS011;64371;47.566;19.086;2023-02-26T11:48:26;6.72;;;3.72;;
75758;SDS011;64371;47.566;19.086;2023-02-26T11:51:42;4.78;;;2.72;;
75758;SDS011;64371;47.566;19.086;2023-02-26T11:54:55;5.38;;;3.40;;
75758;SDS011;64371;47.566;19.086;2023-02-26T11:58:15;5.70;;;3.30;;
75758;SDS011;64371;47.566;19.086;2023-02-26T12:01:27;4.97;;;3.00;;
75758;SDS011;64371;47.566;19.086;2023-02-26T12:04:44;4.57;;;3.00;;
75758;SDS011;64371;47.566;19.086;2023-02-26T12:07:54;5.38;;;3.17;;
75758;SDS011;64371;47.566;19.086;2023-02-26T12:17:58;5.00;;;3.20;;
75758;SDS011;64371;47.566;19.086;2023-02-26T12:35:30;5.23;;;3.40;;
75758;SDS011;64371;47.566;19.086;2023-02-26T12:38:49;4.55;;;3.03;;
75758;SDS011;64371;47.566;19.086;2023-02-26T12:42:09;4.68;;;3.15;;
75758;SDS011;64371;47.566;19.086;2023-02-26T12:53:16;4.67;;;3.00;;
75758;SDS011;64371;47.566;19.086;2023-02-26T12:57:03;4.22;;;2.33;;
75758;SDS011;64371;47.566;19.086;2023-02-26T13:00:33;6.90;;;3.92;;
75758;SDS011;64371;47.566;19.086;2023-02-26T13:11:14;5.37;;;3.30;;
75758;SDS011;64371;47.566;19.086;2023-02-26T13:18:03;9.52;;;5.20;;
75758;SDS011;64371;47.566;19.086;2023-02-26T13:21:42;8.52;;;3.63;;
75758;SDS011;64371;47.566;19.086;2023-02-26T13:25:00;5.40;;;3.03;;
75758;SDS011;64371;47.566;19.086;2023-02-26T13:35:08;4.60;;;2.70;;
75758;SDS011;64371;47.566;19.086;2023-02-26T13:41:57;4.75;;;2.42;;
75758;SDS011;64371;47.566;19.086;2023-02-26T13:52:27;3.83;;;2.72;;
75758;SDS011;64371;47.566;19.086;2023-02-26T13:55:42;4.38;;;2.40;;
75758;SDS011;64371;47.566;19.086;2023-02-26T13:59:01;5.38;;;2.47;;
75758;SDS011;64371;47.566;19.086;2023-02-26T14:09:28;4.53;;;2.58;;
75758;SDS011;64371;47.566;19.086;2023-02-26T14:12:43;4.40;;;2.35;;
75758;SDS011;64371;47.566;19.086;2023-02-26T14:19:03;7.27;;;3.17;;
75758;SDS011;64371;47.566;19.086;2023-02-26T14:25:20;6.18;;;3.38;;
75758;SDS011;64371;47.566;19.086;2023-02-26T14:28:45;4.55;;;2.40;;
75758;SDS011;64371;47.566;19.086;2023-02-26T14:35:51;5.53;;;3.30;;
75758;SDS011;64371;47.566;19.086;2023-02-26T14:38:54;11.30;;;3.38;;
75758;SDS011;64371;47.566;19.086;2023-02-26T14:42:07;6.63;;;3.65;;
75758;SDS011;64371;47.566;19.086;2023-02-26T14:45:21;6.97;;;3.47;;
75758;SDS011;64371;47.566;19.086;2023-02-26T14:48:37;6.82;;;3.88;;
75758;SDS011;64371;47.566;19.086;2023-02-26T14:51:53;5.13;;;2.40;;
75758;SDS011;64371;47.566;19.086;2023-02-26T15:10:33;11.20;;;5.87;;
75758;SDS011;64371;47.566;19.086;2023-02-26T15:21:03;7.25;;;3.83;;
75758;SDS011;64371;47.566;19.086;2023-02-26T15:24:14;4.55;;;2.50;;
75758;SDS011;64371;47.566;19.086;2023-02-26T15:27:23;5.37;;;3.00;;
75758;SDS011;64371;47.566;19.086;2023-02-26T15:30:29;4.75;;;2.63;;
75758;SDS011;64371;47.566;19.086;2023-02-26T15:33:41;5.18;;;2.28;;
75758;SDS011;64371;47.566;19.086;2023-02-26T15:36:51;6.50;;;2.83;;
75758;SDS011;64371;47.566;19.086;2023-02-26T15:40:03;6.97;;;3.38;;
75758;SDS011;64371;47.566;19.086;2023-02-26T15:43:20;5.73;;;3.10;;
75758;SDS011;64371;47.566;19.086;2023-02-26T15:46:38;7.65;;;3.95;;
75758;SDS011;64371;47.566;19.086;2023-02-26T15:50:12;7.03;;;3.22;;
75758;SDS011;64371;47.566;19.086;2023-02-26T15:53:27;8.70;;;2.90;;
75758;SDS011;64371;47.566;19.086;2023-02-26T15:56:34;9.27;;;3.88;;
75758;SDS011;64371;47.566;19.086;2023-02-26T15:59:42;4.83;;;2.87;;
75758;SDS011;64371;47.566;19.086;2023-02-26T16:02:53;5.75;;;2.80;;
75758;SDS011;64371;47.566;19.086;2023-02-26T16:05:58;7.38;;;3.65;;
75758;SDS011;64371;47.566;19.086;2023-02-26T16:12:43;5.88;;;3.22;;
75758;SDS011;64371;47.566;19.086;2023-02-26T16:15:50;5.63;;;2.63;;
75758;SDS011;64371;47.566;19.086;2023-02-26T16:18:59;4.78;;;2.78;;
75758;SDS011;64371;47.566;19.086;2023-02-26T16:25:55;4.95;;;2.20;;
75758;SDS011;64371;47.566;19.086;2023-02-26T16:29:06;6.28;;;2.72;;
75758;SDS011;64371;47.566;19.086;2023-02-26T16:32:26;3.70;;;2.00;;
75758;SDS011;64371;47.566;19.086;2023-02-26T16:35:42;6.45;;;2.85;;
75758;SDS011;64371;47.566;19.086;2023-02-26T16:42:07;6.35;;;3.45;;
75758;SDS011;64371;47.566;19.086;2023-02-26T16:48:53;6.50;;;3.30;;
75758;SDS011;64371;47.566;19.086;2023-02-26T16:52:08;7.22;;;3.45;;
75758;SDS011;64371;47.566;19.086;2023-02-26T16:55:28;7.50;;;4.20;;
75758;SDS011;64371;47.566;19.086;2023-02-26T16:58:35;7.70;;;3.88;;
75758;SDS011;64371;47.566;19.086;2023-02-26T17:01:49;7.30;;;4.15;;
75758;SDS011;64371;47.566;19.086;2023-02-26T17:05:26;8.23;;;3.80;;
75758;SDS011;64371;47.566;19.086;2023-02-26T17:08:41;7.80;;;4.07;;
75758;SDS011;64371;47.566;19.086;2023-02-26T17:12:04;8.55;;;4.38;;
75758;SDS011;64371;47.566;19.086;2023-02-26T17:15:28;8.23;;;4.25;;
75758;SDS011;64371;47.566;19.086;2023-02-26T17:18:40;8.65;;;4.63;;
75758;SDS011;64371;47.566;19.086;2023-02-26T17:21:48;9.73;;;4.53;;
75758;SDS011;64371;47.566;19.086;2023-02-26T17:24:59;10.07;;;4.57;;
75758;SDS011;64371;47.566;19.086;2023-02-26T17:28:25;8.40;;;4.50;;
75758;SDS011;64371;47.566;19.086;2023-02-26T17:31:33;8.95;;;4.63;;
75758;SDS011;64371;47.566;19.086;2023-02-26T17:34:42;10.88;;;4.95;;
75758;SDS011;64371;47.566;19.086;2023-02-26T17:37:50;9.97;;;4.97;;
75758;SDS011;64371;47.566;19.086;2023-02-26T17:41:08;9.52;;;4.53;;
75758;SDS011;64371;47.566;19.086;2023-02-26T17:44:13;13.13;;;5.72;;
75758;SDS011;64371;47.566;19.086;2023-02-26T17:47:33;12.43;;;5.90;;
75758;SDS011;64371;47.566;19.086;2023-02-26T17:50:52;14.43;;;6.03;;
75758;SDS011;64371;47.566;19.086;2023-02-26T17:54:00;13.43;;;6.27;;
75758;SDS011;64371;47.566;19.086;2023-02-26T17:57:08;12.55;;;6.03;;
75758;SDS011;64371;47.566;19.086;2023-02-26T18:00:22;13.30;;;5.82;;
75758;SDS011;64371;47.566;19.086;2023-02-26T18:03:28;11.77;;;5.72;;
75758;SDS011;64371;47.566;19.086;2023-02-26T18:06:34;12.55;;;5.70;;
75758;SDS011;64371;47.566;19.086;2023-02-26T18:09:41;12.93;;;5.50;;
75758;SDS011;64371;47.566;19.086;2023-02-26T18:12:55;9.77;;;4.95;;
75758;SDS011;64371;47.566;19.086;2023-02-26T18:16:03;10.55;;;4.93;;
75758;SDS011;64371;47.566;19.086;2023-02-26T18:19:11;8.50;;;4.40;;
75758;SDS011;64371;47.566;19.086;2023-02-26T18:22:20;10.02;;;4.97;;
75758;SDS011;64371;47.566;19.086;2023-02-26T18:25:37;9.10;;;4.63;;
75758;SDS011;64371;47.566;19.086;2023-02-26T18:28:49;11.30;;;5.18;;
75758;SDS011;64371;47.566;19.086;2023-02-26T18:31:59;10.57;;;5.40;;
75758;SDS011;64371;47.566;19.086;2023-02-26T18:35:09;13.50;;;5.53;;
75758;SDS011;64371;47.566;19.086;2023-02-26T18:38:19;9.35;;;4.72;;
75758;SDS011;64371;47.566;19.086;2023-02-26T18:41:28;9.83;;;4.90;;
75758;SDS011;64371;47.566;19.086;2023-02-26T18:44:30;9.38;;;4.65;;
75758;SDS011;64371;47.566;19.086;2023-02-26T18:47:36;10.43;;;4.72;;
75758;SDS011;64371;47.566;19.086;2023-02-26T18:50:39;11.68;;;5.13;;
75758;SDS011;64371;47.566;19.086;2023-02-26T18:53:47;10.57;;;5.47;;
75758;SDS011;64371;47.566;19.086;2023-02-26T18:56:55;10.07;;;5.33;;
75758;SDS011;64371;47.566;19.086;2023-02-26T18:59:58;10.82;;;5.55;;
75758;SDS011;64371;47.566;19.086;2023-02-26T19:03:00;13.35;;;6.93;;
75758;SDS011;64371;47.566;19.086;2023-02-26T19:06:06;12.38;;;6.18;;
75758;SDS011;64371;47.566;19.086;2023-02-26T19:09:10;11.85;;;5.45;;
75758;SDS011;64371;47.566;19.086;2023-02-26T19:12:15;12.97;;;6.07;;
75758;SDS011;64371;47.566;19.086;2023-02-26T19:15:25;11.05;;;4.50;;
75758;SDS011;64371;47.566;19.086;2023-02-26T19:18:38;11.48;;;6.63;;
75758;SDS011;64371;47.566;19.086;2023-02-26T19:21:43;39.40;;;19.00;;
75758;SDS011;64371;47.566;19.086;2023-02-26T19:24:48;20.52;;;9.45;;
75758;SDS011;64371;47.566;19.086;2023-02-26T19:27:53;48.43;;;18.93;;
75758;SDS011;64371;47.566;19.086;2023-02-26T19:31:04;69.97;;;27.98;;
75758;SDS011;64371;47.566;19.086;2023-02-26T19:34:22;26.52;;;10.23;;
75758;SDS011;64371;47.566;19.086;2023-02-26T19:37:37;30.90;;;11.52;;
75758;SDS011;64371;47.566;19.086;2023-02-26T19:40:43;42.20;;;17.33;;
75758;SDS011;64371;47.566;19.086;2023-02-26T19:43:54;39.03;;;18.10;;
75758;SDS011;64371;47.566;19.086;2023-02-26T19:46:59;25.35;;;13.80;;
75758;SDS011;64371;47.566;19.086;2023-02-26T19:50:03;17.38;;;8.57;;
75758;SDS011;64371;47.566;19.086;2023-02-26T19:53:13;12.23;;;6.05;;
75758;SDS011;64371;47.566;19.086;2023-02-26T19:56:21;28.33;;;13.63;;
75758;SDS011;64371;47.566;19.086;2023-02-26T19:59:35;16.57;;;8.03;;
75758;SDS011;64371;47.566;19.086;2023-02-26T20:02:40;22.15;;;10.75;;
75758;SDS011;64371;47.566;19.086;2023-02-26T20:05:43;20.45;;;10.02;;
75758;SDS011;64371;47.566;19.086;2023-02-26T20:09:08;29.40;;;16.23;;
75758;SDS011;64371;47.566;19.086;2023-02-26T20:12:17;21.25;;;11.15;;
75758;SDS011;64371;47.566;19.086;2023-02-26T20:15:21;7.37;;;3.43;;
75758;SDS011;64371;47.566;19.086;2023-02-26T20:18:41;14.57;;;8.52;;
75758;SDS011;64371;47.566;19.086;2023-02-26T20:21:55;9.50;;;5.50;;
75758;SDS011;64371;47.566;19.086;2023-02-26T20:25:02;15.43;;;9.32;;
75758;SDS011;64371;47.566;19.086;2023-02-26T20:28:07;10.68;;;5.70;;
75758;SDS011;64371;47.566;19.086;2023-02-26T20:31:12;9.93;;;5.47;;
75758;SDS011;64371;47.566;19.086;2023-02-26T20:34:19;9.77;;;4.63;;
75758;SDS011;64371;47.566;19.086;2023-02-26T20:37:29;8.98;;;4.80;;
75758;SDS011;64371;47.566;19.086;2023-02-26T20:40:43;9.55;;;4.60;;
75758;SDS011;64371;47.566;19.086;2023-02-26T20:43:54;7.32;;;3.92;;
75758;SDS011;64371;47.566;19.086;2023-02-26T20:46:59;6.77;;;3.43;;
75758;SDS011;64371;47.566;19.086;2023-02-26T20:50:07;7.50;;;4.20;;
75758;SDS011;64371;47.566;19.086;2023-02-26T20:53:14;5.25;;;2.33;;
75758;SDS011;64371;47.566;19.086;2023-02-26T20:56:16;4.55;;;2.25;;
75758;SDS011;64371;47.566;19.086;2023-02-26T20:59:22;5.10;;;2.20;;
75758;SDS011;64371;47.566;19.086;2023-02-26T21:02:26;6.07;;;2.67;;
75758;SDS011;64371;47.566;19.086;2023-02-26T21:05:36;6.95;;;3.05;;
75758;SDS011;64371;47.566;19.086;2023-02-26T21:08:48;4.70;;;2.80;;
75758;SDS011;64371;47.566;19.086;2023-02-26T21:11:53;5.00;;;2.70;;
75758;SDS011;64371;47.566;19.086;2023-02-26T21:14:57;4.90;;;2.85;;
75758;SDS011;64371;47.566;19.086;2023-02-26T21:18:01;6.13;;;2.90;;
75758;SDS011;64371;47.566;19.086;2023-02-26T21:21:09;5.57;;;2.88;;
75758;SDS011;64371;47.566;19.086;2023-02-26T21:24:14;5.22;;;2.60;;
75758;SDS011;64371;47.566;19.086;2023-02-26T21:27:23;5.13;;;2.35;;
75758;SDS011;64371;47.566;19.086;2023-02-26T21:30:35;5.32;;;2.30;;
75758;SDS011;64371;47.566;19.086;2023-02-26T21:33:47;5.67;;;2.43;;
75758;SDS011;64371;47.566;19.086;2023-02-26T21:37:01;7.22;;;3.25;;
75758;SDS011;64371;47.566;19.086;2023-02-26T21:40:16;6.78;;;2.90;;
75758;SDS011;64371;47.566;19.086;2023-02-26T21:43:23;8.73;;;4.00;;
75758;SDS011;64371;47.566;19.086;2023-02-26T21:46:28;9.18;;;4.30;;